PWSweather.com
Personal Weather Stations
Station Observations
2450ARBOR
Round Rock, TX 78681

Round Rock, TX 78681

Lat: 30.535239, Lon: -97.728137

Elevation: 800

Station Type:

High Low Average
Temperature 73.0°F22.8°C 38.5°F3.6°C 54.4°F12.4°C
Dew Point 52.0°F11.1°C 30.0°F-1.1°C 43.2°F6.2°C
Winds 5.0 mph 8.0 kmh Calm Calm 1.0 mph S1.6 kmh S
Wind Gusts 7.0 mph11.3 kmh -- 2.0 mph3.2 kmh
Humidity 95% 45% 69%
Pressure 30.23 in1023.7 mb 29.82 in1009.8 mb -
Precipitation 0.00 in0.0 mm - -
Hour Temp Dew Point Humidity Winds Wind Gusts Pressure Precip Precip Rate Daily Precip Total
12:11 AM 38.8°F3.8°C 36.0°F2.2°C 91% Calm Calm -- 30.02 in1016.6 mb 0.00 in0.0 mm 0.00 in0.0 mm 0.00 in0.0 mm
12:21 AM 38.5°F3.6°C 36.0°F2.2°C 92% Calm Calm -- 30.02 in1016.6 mb 0.00 in0.0 mm 0.00 in0.0 mm 0.00 in0.0 mm
12:31 AM 38.5°F3.6°C 36.0°F2.2°C 92% Calm Calm -- 30.02 in1016.6 mb 0.00 in0.0 mm 0.00 in0.0 mm 0.00 in0.0 mm
01:01 AM 38.5°F3.6°C 37.0°F2.8°C 94% Calm Calm -- 29.99 in1015.6 mb 0.00 in0.0 mm 0.00 in0.0 mm 0.00 in0.0 mm
01:10 AM 38.5°F3.6°C 37.0°F2.8°C 94% Calm Calm -- 29.99 in1015.6 mb 0.00 in0.0 mm 0.00 in0.0 mm 0.00 in0.0 mm
02:01 AM 39.6°F4.2°C 38.0°F3.3°C 95% Calm Calm -- 29.96 in1014.6 mb 0.00 in0.0 mm 0.00 in0.0 mm 0.00 in0.0 mm
02:11 AM 39.9°F4.4°C 39.0°F3.9°C 95% Calm Calm -- 29.96 in1014.6 mb 0.00 in0.0 mm 0.00 in0.0 mm 0.00 in0.0 mm
02:31 AM 40.6°F4.8°C 39.0°F3.9°C 95% Calm Calm -- 29.96 in1014.6 mb 0.00 in0.0 mm 0.00 in0.0 mm 0.00 in0.0 mm
02:50 AM 41.7°F5.4°C 40.0°F4.4°C 95% Calm Calm -- 29.96 in1014.6 mb 0.00 in0.0 mm 0.00 in0.0 mm 0.00 in0.0 mm
03:01 AM 42.1°F5.6°C 41.0°F5.0°C 95% Calm Calm -- 29.94 in1013.9 mb 0.00 in0.0 mm 0.00 in0.0 mm 0.00 in0.0 mm
03:41 AM 42.6°F5.9°C 41.0°F5.0°C 93% Calm Calm 1.0 mph1.6 kmh 29.94 in1013.9 mb 0.00 in0.0 mm 0.00 in0.0 mm 0.00 in0.0 mm
03:51 AM 43.5°F6.4°C 40.0°F4.4°C 89% Calm Calm 1.0 mph1.6 kmh 29.94 in1013.9 mb 0.00 in0.0 mm 0.00 in0.0 mm 0.00 in0.0 mm
04:01 AM 44.1°F6.7°C 41.0°F5.0°C 89% Calm Calm -- 29.92 in1013.2 mb 0.00 in0.0 mm 0.00 in0.0 mm 0.00 in0.0 mm
04:31 AM 45.5°F7.5°C 42.0°F5.6°C 86% Calm Calm 2.0 mph3.2 kmh 29.92 in1013.2 mb 0.00 in0.0 mm 0.00 in0.0 mm 0.00 in0.0 mm
04:51 AM 46.2°F7.9°C 42.0°F5.6°C 85% 1.0 mph SSE1.6 kmh SSE 1.0 mph1.6 kmh 29.92 in1013.2 mb 0.00 in0.0 mm 0.00 in0.0 mm 0.00 in0.0 mm
05:01 AM 46.0°F7.8°C 42.0°F5.6°C 85% Calm Calm 2.0 mph3.2 kmh 29.89 in1012.2 mb 0.00 in0.0 mm 0.00 in0.0 mm 0.00 in0.0 mm
05:31 AM 46.0°F7.8°C 42.0°F5.6°C 86% Calm Calm -- 29.89 in1012.2 mb 0.00 in0.0 mm 0.00 in0.0 mm 0.00 in0.0 mm
05:51 AM 45.5°F7.5°C 42.0°F5.6°C 87% Calm Calm -- 29.89 in1012.2 mb 0.00 in0.0 mm 0.00 in0.0 mm 0.00 in0.0 mm
06:31 AM 44.1°F6.7°C 41.0°F5.0°C 89% Calm Calm -- 29.88 in1011.9 mb 0.00 in0.0 mm 0.00 in0.0 mm 0.00 in0.0 mm
06:40 AM 43.3°F6.3°C 40.0°F4.4°C 89% Calm Calm -- 29.88 in1011.9 mb 0.00 in0.0 mm 0.00 in0.0 mm 0.00 in0.0 mm
07:21 AM 43.0°F6.1°C 41.0°F5.0°C 91% Calm Calm -- 29.88 in1011.9 mb 0.00 in0.0 mm 0.00 in0.0 mm 0.00 in0.0 mm
07:31 AM 42.4°F5.8°C 40.0°F4.4°C 91% Calm Calm -- 29.88 in1011.9 mb 0.00 in0.0 mm 0.00 in0.0 mm 0.00 in0.0 mm
07:41 AM 41.9°F5.5°C 40.0°F4.4°C 91% Calm Calm -- 29.88 in1011.9 mb 0.00 in0.0 mm 0.00 in0.0 mm 0.00 in0.0 mm
08:21 AM 42.1°F5.6°C 40.0°F4.4°C 94% Calm Calm -- 29.88 in1011.9 mb 0.00 in0.0 mm 0.00 in0.0 mm 0.00 in0.0 mm
08:31 AM 42.3°F5.7°C 41.0°F5.0°C 94% Calm Calm -- 29.88 in1011.9 mb 0.00 in0.0 mm 0.00 in0.0 mm 0.00 in0.0 mm
09:11 AM 46.9°F8.3°C 45.0°F7.2°C 94% 1.0 mph NNE1.6 kmh NNE 2.0 mph3.2 kmh 29.90 in1012.5 mb 0.00 in0.0 mm 0.00 in0.0 mm 0.00 in0.0 mm
09:41 AM 48.9°F9.4°C 46.0°F7.8°C 91% 1.0 mph SSE1.6 kmh SSE 2.0 mph3.2 kmh 29.90 in1012.5 mb 0.00 in0.0 mm 0.00 in0.0 mm 0.00 in0.0 mm
09:51 AM 50.0°F10.0°C 47.0°F8.3°C 90% 1.0 mph NE1.6 kmh NE 1.0 mph1.6 kmh 29.90 in1012.5 mb 0.00 in0.0 mm 0.00 in0.0 mm 0.00 in0.0 mm
10:31 AM 55.2°F12.9°C 50.0°F10.0°C 83% 2.0 mph SSW3.2 kmh SSW 6.0 mph9.7 kmh 29.90 in1012.5 mb 0.00 in0.0 mm 0.00 in0.0 mm 0.00 in0.0 mm
10:41 AM 56.5°F13.6°C 50.0°F10.0°C 79% 4.0 mph E6.4 kmh E 4.0 mph6.4 kmh 29.90 in1012.5 mb 0.00 in0.0 mm 0.00 in0.0 mm 0.00 in0.0 mm
11:31 AM 63.3°F17.4°C 51.0°F10.6°C 64% 2.0 mph WSW3.2 kmh WSW 4.0 mph6.4 kmh 29.91 in1012.9 mb 0.00 in0.0 mm 0.00 in0.0 mm 0.00 in0.0 mm
11:41 AM 63.1°F17.3°C 50.0°F10.0°C 63% 2.0 mph SSE3.2 kmh SSE 3.0 mph4.8 kmh 29.91 in1012.9 mb 0.00 in0.0 mm 0.00 in0.0 mm 0.00 in0.0 mm
12:01 PM 64.0°F17.8°C 49.0°F9.4°C 58% 4.0 mph SE6.4 kmh SE 6.0 mph9.7 kmh 29.90 in1012.5 mb 0.00 in0.0 mm 0.00 in0.0 mm 0.00 in0.0 mm
12:21 PM 65.8°F18.8°C 50.0°F10.0°C 57% 3.0 mph WNW4.8 kmh WNW 5.0 mph8.0 kmh 29.90 in1012.5 mb 0.00 in0.0 mm 0.00 in0.0 mm 0.00 in0.0 mm
12:51 PM 66.6°F19.2°C 50.0°F10.0°C 56% 5.0 mph SSE8.0 kmh SSE 5.0 mph8.0 kmh 29.90 in1012.5 mb 0.00 in0.0 mm 0.00 in0.0 mm 0.00 in0.0 mm
01:20 PM 68.9°F20.5°C 51.0°F10.6°C 53% 2.0 mph SE3.2 kmh SE 4.0 mph6.4 kmh 29.88 in1011.9 mb 0.00 in0.0 mm 0.00 in0.0 mm 0.00 in0.0 mm
01:51 PM 69.8°F21.0°C 51.0°F10.6°C 51% 4.0 mph WSW6.4 kmh WSW 5.0 mph8.0 kmh 29.88 in1011.9 mb 0.00 in0.0 mm 0.00 in0.0 mm 0.00 in0.0 mm
02:11 PM 70.2°F21.2°C 52.0°F11.1°C 52% 2.0 mph SW3.2 kmh SW 3.0 mph4.8 kmh 29.86 in1011.2 mb 0.00 in0.0 mm 0.00 in0.0 mm 0.00 in0.0 mm
02:41 PM 71.2°F21.8°C 51.0°F10.6°C 49% 3.0 mph W4.8 kmh W 4.0 mph6.4 kmh 29.86 in1011.2 mb 0.00 in0.0 mm 0.00 in0.0 mm 0.00 in0.0 mm
02:51 PM 71.4°F21.9°C 51.0°F10.6°C 49% 3.0 mph W4.8 kmh W 4.0 mph6.4 kmh 29.86 in1011.2 mb 0.00 in0.0 mm 0.00 in0.0 mm 0.00 in0.0 mm
03:01 PM 71.6°F22.0°C 51.0°F10.6°C 48% 2.0 mph W3.2 kmh W 5.0 mph8.0 kmh 29.83 in1010.2 mb 0.00 in0.0 mm 0.00 in0.0 mm 0.00 in0.0 mm
03:41 PM 72.5°F22.5°C 50.0°F10.0°C 46% 2.0 mph WSW3.2 kmh WSW 3.0 mph4.8 kmh 29.83 in1010.2 mb 0.00 in0.0 mm 0.00 in0.0 mm 0.00 in0.0 mm
04:01 PM 71.1°F21.7°C 50.0°F10.0°C 48% 2.0 mph ESE3.2 kmh ESE 2.0 mph3.2 kmh 29.82 in1009.8 mb 0.00 in0.0 mm 0.00 in0.0 mm 0.00 in0.0 mm
04:51 PM 73.0°F22.8°C 50.0°F10.0°C 45% 1.0 mph W1.6 kmh W 2.0 mph3.2 kmh 29.82 in1009.8 mb 0.00 in0.0 mm 0.00 in0.0 mm 0.00 in0.0 mm
05:01 PM 72.5°F22.5°C 50.0°F10.0°C 46% Calm Calm 3.0 mph4.8 kmh 29.84 in1010.5 mb 0.00 in0.0 mm 0.00 in0.0 mm 0.00 in0.0 mm
05:21 PM 72.3°F22.4°C 51.0°F10.6°C 47% Calm Calm 1.0 mph1.6 kmh 29.84 in1010.5 mb 0.00 in0.0 mm 0.00 in0.0 mm 0.00 in0.0 mm
05:41 PM 72.0°F22.2°C 51.0°F10.6°C 48% Calm Calm -- 29.84 in1010.5 mb 0.00 in0.0 mm 0.00 in0.0 mm 0.00 in0.0 mm
06:11 PM 67.8°F19.9°C 50.0°F10.0°C 52% Calm Calm 2.0 mph3.2 kmh 29.87 in1011.5 mb 0.00 in0.0 mm 0.00 in0.0 mm 0.00 in0.0 mm
06:31 PM 66.2°F19.0°C 44.0°F6.7°C 45% 3.0 mph W4.8 kmh W 6.0 mph9.7 kmh 29.87 in1011.5 mb 0.00 in0.0 mm 0.00 in0.0 mm 0.00 in0.0 mm
07:01 PM 62.8°F17.1°C 43.0°F6.1°C 49% 2.0 mph NNW3.2 kmh NNW 2.0 mph3.2 kmh 29.92 in1013.2 mb 0.00 in0.0 mm 0.00 in0.0 mm 0.00 in0.0 mm
07:21 PM 61.0°F16.1°C 42.0°F5.6°C 49% 2.0 mph 3.2 kmh 7.0 mph11.3 kmh 29.92 in1013.2 mb 0.00 in0.0 mm 0.00 in0.0 mm 0.00 in0.0 mm
08:01 PM 59.0°F15.0°C 40.0°F4.4°C 50% 3.0 mph W4.8 kmh W 3.0 mph4.8 kmh 29.99 in1015.6 mb 0.00 in0.0 mm 0.00 in0.0 mm 0.00 in0.0 mm
08:11 PM 58.5°F14.7°C 40.0°F4.4°C 50% 2.0 mph W3.2 kmh W 3.0 mph4.8 kmh 29.99 in1015.6 mb 0.00 in0.0 mm 0.00 in0.0 mm 0.00 in0.0 mm
08:31 PM 57.6°F14.2°C 40.0°F4.4°C 51% 1.0 mph NNE1.6 kmh NNE 3.0 mph4.8 kmh 29.99 in1015.6 mb 0.00 in0.0 mm 0.00 in0.0 mm 0.00 in0.0 mm
09:01 PM 57.0°F13.9°C 40.0°F4.4°C 53% 5.0 mph SSE8.0 kmh SSE 5.0 mph8.0 kmh 30.06 in1017.9 mb 0.00 in0.0 mm 0.00 in0.0 mm 0.00 in0.0 mm
09:20 PM 55.4°F13.0°C 39.0°F3.9°C 54% 4.0 mph WSW6.4 kmh WSW 4.0 mph6.4 kmh 30.06 in1017.9 mb 0.00 in0.0 mm 0.00 in0.0 mm 0.00 in0.0 mm
09:41 PM 54.0°F12.2°C 38.0°F3.3°C 55% 5.0 mph E8.0 kmh E 6.0 mph9.7 kmh 30.06 in1017.9 mb 0.00 in0.0 mm 0.00 in0.0 mm 0.00 in0.0 mm
10:10 PM 51.6°F10.9°C 37.0°F2.8°C 58% 2.0 mph SW3.2 kmh SW 6.0 mph9.7 kmh 30.14 in1020.7 mb 0.00 in0.0 mm 0.00 in0.0 mm 0.00 in0.0 mm
10:40 PM 49.5°F9.7°C 35.0°F1.7°C 58% 4.0 mph 6.4 kmh 4.0 mph6.4 kmh 30.14 in1020.7 mb 0.00 in0.0 mm 0.00 in0.0 mm 0.00 in0.0 mm
11:21 PM 47.5°F8.6°C 31.0°F-0.6°C 52% 4.0 mph S6.4 kmh S 4.0 mph6.4 kmh 30.19 in1022.4 mb 0.00 in0.0 mm 0.00 in0.0 mm 0.00 in0.0 mm
11:50 PM 46.2°F7.9°C 30.0°F-1.1°C 54% 2.0 mph ESE3.2 kmh ESE 4.0 mph6.4 kmh 30.19 in1022.4 mb 0.00 in0.0 mm 0.00 in0.0 mm 0.00 in0.0 mm